Time;durP1;ratioP1;P1;durP2;ratioP2;P2;SDS_P1;SDS_P2;PMS_P1;PMS_P2;Temp;Humidity;BMP_temperature;BMP_pressure;BME280_temperature;BME280_humidity;BME280_pressure;Samples;Min_cycle;Max_cycle;Signal;HPM_P1;HPM_P2
2022/03/12 00:00:36;;;;;;;;;;;6.00;53.50;;;;;;5090938;28;19923;-79
2022/03/12 00:03:02;;;;;;;;;;;6.00;53.40;;;;;;5091742;28;19919;-79
2022/03/12 00:05:30;;;;;;;;;;;5.90;53.30;;;;;;5091953;28;19924;-79
2022/03/12 00:07:55;;;;;;;;;;;5.90;53.30;;;;;;5109634;28;19927;-79
2022/03/12 00:10:22;;;;;;;;;;;5.90;53.10;;;;;;5091797;28;19919;-79
2022/03/12 00:12:47;;;;;;;;;;;5.90;53.50;;;;;;5074743;28;20417;-79
2022/03/12 00:15:14;;;;;;;;;;;5.90;53.70;;;;;;5109450;28;19970;-79
2022/03/12 00:17:43;;;;;;;;;;;5.80;53.70;;;;;;5110047;28;20034;-79
2022/03/12 00:20:12;;;;;;;;;;;5.80;54.10;;;;;;5091807;28;20007;-79
2022/03/12 00:22:41;;;;;;;;;;;5.80;54.10;;;;;;5091671;28;20323;-79
2022/03/12 00:25:07;;;;;;;;;;;5.70;54.00;;;;;;5109658;28;19999;-80
2022/03/12 00:27:32;;;;;;;;;;;5.70;53.70;;;;;;5091601;28;19931;-79
2022/03/12 00:30:00;;;;;;;;;;;5.70;54.10;;;;;;5091116;28;20565;-79
2022/03/12 00:32:27;;;;;;;;;;;5.70;54.00;;;;;;5091271;28;20024;-79
2022/03/12 00:34:52;;;;;;;;;;;5.70;54.00;;;;;;5091029;28;19977;-79
2022/03/12 00:37:19;;;;;;;;;;;5.70;54.50;;;;;;5091927;28;19967;-79
2022/03/12 00:39:47;;;;;;;;;;;5.70;54.20;;;;;;5091607;28;20064;-79
2022/03/12 00:42:13;;;;;;;;;;;5.70;54.50;;;;;;5091446;28;19920;-80
2022/03/12 00:44:39;;;;;;;;;;;5.60;54.10;;;;;;5091137;28;20707;-79
2022/03/12 00:47:04;;;;;;;;;;;5.60;54.40;;;;;;5091668;28;20539;-79
2022/03/12 00:49:30;;;;;;;;;;;5.60;54.50;;;;;;5091246;28;20378;-79
2022/03/12 00:51:55;;;;;;;;;;;5.60;54.80;;;;;;5091679;28;19972;-79
2022/03/12 00:54:21;;;;;;;;;;;5.60;54.40;;;;;;5091485;28;20452;-79
2022/03/12 00:56:47;;;;;;;;;;;5.60;54.00;;;;;;5091533;28;19927;-79
2022/03/12 00:59:13;;;;;;;;;;;5.60;54.30;;;;;;5091095;28;20398;-79
2022/03/12 01:01:39;;;;;;;;;;;5.60;54.60;;;;;;5091130;28;19963;-79
2022/03/12 01:04:05;;;;;;;;;;;5.50;54.60;;;;;;5109650;28;19959;-79
2022/03/12 01:06:34;;;;;;;;;;;5.50;54.50;;;;;;5090806;28;19920;-79
2022/03/12 01:09:00;;;;;;;;;;;5.50;54.80;;;;;;5109331;28;19935;-79
2022/03/12 01:11:25;;;;;;;;;;;5.50;54.40;;;;;;5091807;28;19927;-79
2022/03/12 01:13:51;;;;;;;;;;;5.50;54.80;;;;;;5094925;28;19920;-79
2022/03/12 01:16:16;;;;;;;;;;;5.50;54.30;;;;;;5094907;28;19920;-79
2022/03/12 01:18:42;;;;;;;;;;;5.50;54.60;;;;;;5094747;28;19946;-79
2022/03/12 01:21:18;;;;;;;;;;;5.50;54.70;;;;;;5077790;28;20297;-79
2022/03/12 01:23:44;;;;;;;;;;;5.50;54.80;;;;;;5095092;28;19920;-79
2022/03/12 01:26:10;;;;;;;;;;;5.40;54.60;;;;;;5077715;28;20006;-79
2022/03/12 01:28:37;;;;;;;;;;;5.50;54.80;;;;;;5094150;28;20027;-79
2022/03/12 01:31:02;;;;;;;;;;;5.50;55.00;;;;;;5112896;28;19919;-79
2022/03/12 01:33:28;;;;;;;;;;;5.40;54.90;;;;;;5094560;28;19930;-79
2022/03/12 01:35:54;;;;;;;;;;;5.40;54.60;;;;;;5094391;28;20294;-79
2022/03/12 01:38:27;;;;;;;;;;;5.40;54.70;;;;;;5094478;28;19920;-79
2022/03/12 01:40:52;;;;;;;;;;;5.40;55.00;;;;;;5094797;28;19919;-79
2022/03/12 01:43:18;;;;;;;;;;;5.40;55.10;;;;;;5094256;28;20399;-79
2022/03/12 01:45:43;;;;;;;;;;;5.40;55.00;;;;;;5077406;28;20041;-79
2022/03/12 01:48:09;;;;;;;;;;;5.40;55.00;;;;;;5077241;28;19920;-79
2022/03/12 01:50:35;;;;;;;;;;;5.40;55.50;;;;;;5094296;28;20390;-79
2022/03/12 01:53:02;;;;;;;;;;;5.30;55.50;;;;;;5112225;28;20018;-79
2022/03/12 01:55:31;;;;;;;;;;;5.30;55.50;;;;;;5094641;28;19920;-79
2022/03/12 01:57:58;;;;;;;;;;;5.30;55.40;;;;;;5094119;28;19977;-79
2022/03/12 02:00:25;;;;;;;;;;;5.30;55.60;;;;;;5093682;28;20320;-79
2022/03/12 02:02:53;;;;;;;;;;;5.20;55.20;;;;;;5093893;28;20448;-79
2022/03/12 02:05:19;;;;;;;;;;;5.20;55.40;;;;;;5093848;28;19966;-79
2022/03/12 02:07:46;;;;;;;;;;;5.20;55.60;;;;;;5093834;28;20366;-79
2022/03/12 02:10:13;;;;;;;;;;;5.20;55.30;;;;;;5076207;28;19972;-80
2022/03/12 02:12:38;;;;;;;;;;;5.20;55.60;;;;;;5093723;28;20273;-79
2022/03/12 02:15:04;;;;;;;;;;;5.20;55.50;;;;;;5111732;28;20002;-79
2022/03/12 02:17:30;;;;;;;;;;;5.20;55.30;;;;;;5093689;28;19919;-79
2022/03/12 02:19:55;;;;;;;;;;;5.20;55.30;;;;;;5092868;28;20401;-79
2022/03/12 02:22:21;;;;;;;;;;;5.20;55.60;;;;;;5093415;28;19984;-79
2022/03/12 02:24:46;;;;;;;;;;;5.10;55.60;;;;;;5092866;28;20394;-79
2022/03/12 02:27:12;;;;;;;;;;;5.10;55.70;;;;;;5093521;28;19920;-79
2022/03/12 02:29:40;;;;;;;;;;;5.10;55.50;;;;;;5093224;28;20358;-80
2022/03/12 02:32:09;;;;;;;;;;;5.10;55.70;;;;;;5092863;28;19920;-79
2022/03/12 02:34:43;;;;;;;;;;;5.10;55.70;;;;;;5093083;28;20430;-79
2022/03/12 02:37:10;;;;;;;;;;;5.10;55.80;;;;;;5093308;28;20023;-80
2022/03/12 02:39:38;;;;;;;;;;;5.10;55.40;;;;;;5093351;28;19920;-79
2022/03/12 02:42:07;;;;;;;;;;;5.10;55.60;;;;;;5092930;28;19923;-79
2022/03/12 02:44:33;;;;;;;;;;;5.10;55.40;;;;;;5093153;28;19923;-79
2022/03/12 02:47:15;;;;;;;;;;;5.10;55.60;;;;;;5075516;28;20281;-79
2022/03/12 02:49:45;;;;;;;;;;;5.10;55.50;;;;;;5093229;28;20018;-79
2022/03/12 02:52:11;;;;;;;;;;;5.10;55.80;;;;;;5092740;28;19919;-79
2022/03/12 02:54:37;;;;;;;;;;;5.10;55.70;;;;;;5092469;28;19919;-79
2022/03/12 02:57:03;;;;;;;;;;;5.10;54.90;;;;;;5092966;28;19920;-80
2022/03/12 02:59:29;;;;;;;;;;;5.10;55.20;;;;;;5092962;28;19926;-79
2022/03/12 03:02:00;;;;;;;;;;;5.10;55.10;;;;;;5092590;28;20538;-79
2022/03/12 03:04:25;;;;;;;;;;;5.10;54.80;;;;;;5075556;28;19919;-79
2022/03/12 03:06:51;;;;;;;;;;;5.10;54.90;;;;;;5092270;28;19927;-79
2022/03/12 03:09:16;;;;;;;;;;;5.10;54.90;;;;;;5092482;28;19920;-79
2022/03/12 03:11:43;;;;;;;;;;;5.10;55.00;;;;;;5092537;28;19973;-79
2022/03/12 03:14:10;;;;;;;;;;;5.10;55.10;;;;;;5092771;28;20580;-79
2022/03/12 03:16:36;;;;;;;;;;;5.10;54.80;;;;;;5092331;28;19919;-80
2022/03/12 03:19:02;;;;;;;;;;;5.10;54.70;;;;;;5092449;28;19920;-80
2022/03/12 03:21:27;;;;;;;;;;;5.10;54.90;;;;;;5075475;28;19924;-79
2022/03/12 03:23:54;;;;;;;;;;;5.10;55.60;;;;;;5092120;28;19927;-80
2022/03/12 03:26:38;;;;;;;;;;;5.10;54.40;;;;;;5092657;28;19976;-79
2022/03/12 03:29:04;;;;;;;;;;;5.10;54.40;;;;;;5092072;28;19959;-80
2022/03/12 03:31:29;;;;;;;;;;;5.10;54.20;;;;;;5075327;28;20719;-80
2022/03/12 03:33:55;;;;;;;;;;;5.10;54.20;;;;;;5074825;28;19919;-80
2022/03/12 03:36:21;;;;;;;;;;;5.10;54.00;;;;;;5092084;28;19972;-80
2022/03/12 03:38:46;;;;;;;;;;;5.10;53.70;;;;;;5092211;28;19972;-79
2022/03/12 03:41:12;;;;;;;;;;;5.10;54.10;;;;;;5092517;28;19923;-80
2022/03/12 03:43:37;;;;;;;;;;;5.10;54.00;;;;;;5075033;28;19924;-80
2022/03/12 03:46:03;;;;;;;;;;;5.10;53.50;;;;;;5074612;28;19924;-80
2022/03/12 03:48:31;;;;;;;;;;;5.10;54.10;;;;;;5092316;28;19958;-80
2022/03/12 03:50:56;;;;;;;;;;;5.10;54.20;;;;;;5065665;28;19935;-80
2022/03/12 03:53:24;;;;;;;;;;;5.00;54.10;;;;;;5053939;28;19923;-79
2022/03/12 03:55:49;;;;;;;;;;;5.10;53.80;;;;;;5070656;28;19947;-80
2022/03/12 03:58:15;;;;;;;;;;;5.00;53.80;;;;;;5071028;28;20375;-80
2022/03/12 04:00:58;;;;;;;;;;;5.10;53.70;;;;;;5070529;28;19931;-79
2022/03/12 04:03:25;;;;;;;;;;;5.00;54.40;;;;;;5053475;28;19967;-80
2022/03/12 04:05:50;;;;;;;;;;;5.00;54.10;;;;;;5070580;28;19920;-79
2022/03/12 04:08:16;;;;;;;;;;;5.00;53.70;;;;;;5070675;28;19920;-80
2022/03/12 04:10:42;;;;;;;;;;;5.00;53.80;;;;;;5088961;28;20382;-79
2022/03/12 04:13:26;;;;;;;;;;;5.00;54.20;;;;;;5071077;28;19924;-80
2022/03/12 04:15:52;;;;;;;;;;;5.00;54.40;;;;;;5071148;28;19943;-79
2022/03/12 04:18:21;;;;;;;;;;;5.00;54.00;;;;;;5069843;28;19927;-80
2022/03/12 04:20:47;;;;;;;;;;;5.00;54.10;;;;;;5070193;28;19970;-80
2022/03/12 04:23:18;;;;;;;;;;;4.90;55.00;;;;;;5070845;28;19920;-79
2022/03/12 04:25:55;;;;;;;;;;;4.90;54.00;;;;;;5070339;28;19927;-79
2022/03/12 04:28:21;;;;;;;;;;;4.90;54.30;;;;;;5070332;28;20012;-80
2022/03/12 04:30:47;;;;;;;;;;;4.80;54.60;;;;;;5070242;28;19920;-80
2022/03/12 04:33:13;;;;;;;;;;;4.80;55.00;;;;;;5070486;28;20405;-79
2022/03/12 04:35:39;;;;;;;;;;;4.80;54.90;;;;;;5070479;28;19920;-80
2022/03/12 04:38:05;;;;;;;;;;;4.70;54.90;;;;;;5070209;28;19927;-79
2022/03/12 04:40:31;;;;;;;;;;;4.70;55.00;;;;;;5070701;28;20286;-79
2022/03/12 04:42:56;;;;;;;;;;;4.70;54.80;;;;;;5070530;28;19924;-79
2022/03/12 04:45:25;;;;;;;;;;;4.70;54.90;;;;;;5070787;28;20334;-80
2022/03/12 04:47:51;;;;;;;;;;;4.70;55.30;;;;;;5073509;28;20297;-80
2022/03/12 04:50:17;;;;;;;;;;;4.60;55.20;;;;;;5074097;28;19920;-79
2022/03/12 04:52:44;;;;;;;;;;;4.60;55.60;;;;;;5073819;28;19920;-79
2022/03/12 04:55:11;;;;;;;;;;;4.60;55.30;;;;;;5074244;28;20019;-79
2022/03/12 04:57:36;;;;;;;;;;;4.60;55.70;;;;;;5074398;28;19979;-79
2022/03/12 05:00:06;;;;;;;;;;;4.60;55.50;;;;;;5057522;28;19959;-79
2022/03/12 05:02:32;;;;;;;;;;;4.60;55.50;;;;;;5074208;28;19920;-80
2022/03/12 05:04:57;;;;;;;;;;;4.60;55.60;;;;;;5074228;28;19926;-80
2022/03/12 05:07:25;;;;;;;;;;;4.50;55.80;;;;;;5073297;28;19973;-79
2022/03/12 05:09:51;;;;;;;;;;;4.50;55.80;;;;;;5057366;28;19965;-79
2022/03/12 05:12:17;;;;;;;;;;;4.50;55.80;;;;;;5074107;28;20317;-79
2022/03/12 05:14:44;;;;;;;;;;;4.40;55.90;;;;;;5073782;28;20253;-79
2022/03/12 05:17:10;;;;;;;;;;;4.40;55.70;;;;;;5073947;28;19967;-79
2022/03/12 05:19:36;;;;;;;;;;;4.40;55.90;;;;;;5073651;28;19970;-79
2022/03/12 05:22:05;;;;;;;;;;;4.40;56.00;;;;;;5073264;28;20010;-80
2022/03/12 05:24:30;;;;;;;;;;;4.30;55.80;;;;;;5073869;28;20014;-80
2022/03/12 05:26:58;;;;;;;;;;;4.40;55.80;;;;;;5073624;28;20354;-80
2022/03/12 05:29:24;;;;;;;;;;;4.30;55.90;;;;;;5073251;28;19920;-80
2022/03/12 05:31:52;;;;;;;;;;;4.30;56.10;;;;;;5073166;28;20006;-80
2022/03/12 05:34:19;;;;;;;;;;;4.30;56.20;;;;;;5056128;28;19920;-79
2022/03/12 05:36:44;;;;;;;;;;;4.30;56.10;;;;;;5073481;28;19920;-79
2022/03/12 05:39:10;;;;;;;;;;;4.20;56.20;;;;;;5091358;28;19973;-80
2022/03/12 05:41:44;;;;;;;;;;;4.20;56.20;;;;;;5073216;28;20352;-79
2022/03/12 05:44:14;;;;;;;;;;;4.20;56.50;;;;;;5073199;28;20003;-80
2022/03/12 05:46:39;;;;;;;;;;;4.20;56.00;;;;;;5091152;28;20364;-80
2022/03/12 05:49:05;;;;;;;;;;;4.20;56.50;;;;;;5073227;28;19965;-80
2022/03/12 05:51:32;;;;;;;;;;;4.20;56.40;;;;;;5073096;28;19927;-80
2022/03/12 05:53:58;;;;;;;;;;;4.10;56.30;;;;;;5072575;28;19927;-80
2022/03/12 05:56:23;;;;;;;;;;;4.10;56.30;;;;;;5073257;28;20327;-80
2022/03/12 05:58:49;;;;;;;;;;;4.10;56.50;;;;;;5071759;28;19927;-80
2022/03/12 06:01:15;;;;;;;;;;;4.10;56.20;;;;;;5072466;28;20266;-80
2022/03/12 06:03:40;;;;;;;;;;;4.10;56.20;;;;;;5055989;28;20286;-80
2022/03/12 06:06:06;;;;;;;;;;;4.10;56.40;;;;;;5072093;28;19978;-80
2022/03/12 06:08:33;;;;;;;;;;;4.10;56.50;;;;;;5071482;28;19920;-80
2022/03/12 06:11:00;;;;;;;;;;;4.00;56.50;;;;;;5072134;28;19924;-80
2022/03/12 06:13:27;;;;;;;;;;;4.00;56.60;;;;;;5072010;28;19920;-80
2022/03/12 06:15:58;;;;;;;;;;;4.00;56.80;;;;;;5072222;28;19926;-80
2022/03/12 06:18:33;;;;;;;;;;;4.00;56.80;;;;;;5055100;28;19927;-80
2022/03/12 06:20:59;;;;;;;;;;;4.00;56.80;;;;;;5054308;28;19924;-80
2022/03/12 06:23:24;;;;;;;;;;;4.00;56.60;;;;;;5072348;28;19920;-80
2022/03/12 06:25:51;;;;;;;;;;;4.00;56.70;;;;;;5072160;28;19972;-80
2022/03/12 06:28:17;;;;;;;;;;;4.00;56.20;;;;;;5071542;28;19927;-80
2022/03/12 06:30:42;;;;;;;;;;;4.00;56.60;;;;;;5054058;28;19920;-80
2022/03/12 06:33:08;;;;;;;;;;;4.00;56.60;;;;;;5072033;28;19920;-80
2022/03/12 06:35:34;;;;;;;;;;;4.10;56.30;;;;;;5071706;28;20401;-80
2022/03/12 06:38:00;;;;;;;;;;;4.10;56.10;;;;;;5071156;28;20321;-80
2022/03/12 06:40:28;;;;;;;;;;;4.10;55.60;;;;;;5071528;28;20435;-80
2022/03/12 06:42:56;;;;;;;;;;;4.20;56.00;;;;;;5071148;28;20015;-80
2022/03/12 06:45:21;;;;;;;;;;;4.30;56.50;;;;;;5071826;28;19924;-80
2022/03/12 06:47:47;;;;;;;;;;;4.30;55.70;;;;;;5089418;28;19920;-80
2022/03/12 06:50:15;;;;;;;;;;;4.40;55.80;;;;;;5071733;28;19919;-80
2022/03/12 06:52:43;;;;;;;;;;;4.50;56.30;;;;;;5071022;28;20444;-80
2022/03/12 06:55:09;;;;;;;;;;;4.50;56.10;;;;;;5071225;28;20366;-80
2022/03/12 06:57:35;;;;;;;;;;;4.50;56.30;;;;;;5071588;28;19960;-80
2022/03/12 07:00:02;;;;;;;;;;;4.50;56.30;;;;;;5070565;28;19963;-80
2022/03/12 07:02:28;;;;;;;;;;;4.50;55.80;;;;;;5071628;28;20344;-80
2022/03/12 07:04:53;;;;;;;;;;;4.60;55.90;;;;;;5071000;28;19920;-80
2022/03/12 07:07:19;;;;;;;;;;;4.60;56.10;;;;;;5071155;28;20298;-80
2022/03/12 07:09:44;;;;;;;;;;;4.60;55.60;;;;;;5070133;28;19924;-81
2022/03/12 07:12:11;;;;;;;;;;;4.60;55.60;;;;;;5071024;28;20344;-80
2022/03/12 07:14:37;;;;;;;;;;;4.60;55.80;;;;;;5054342;28;19920;-81
2022/03/12 07:17:02;;;;;;;;;;;4.70;55.80;;;;;;5071055;28;19924;-81
2022/03/12 07:19:28;;;;;;;;;;;4.70;56.10;;;;;;5070532;28;19985;-81
2022/03/12 07:21:53;;;;;;;;;;;4.70;55.60;;;;;;5053636;28;19998;-81
2022/03/12 07:24:19;;;;;;;;;;;4.70;55.50;;;;;;5071249;28;19967;-81
2022/03/12 07:26:44;;;;;;;;;;;4.80;55.70;;;;;;5070264;28;19926;-80
2022/03/12 07:29:10;;;;;;;;;;;4.80;56.00;;;;;;5070951;28;19927;-80
2022/03/12 07:31:39;;;;;;;;;;;4.80;55.70;;;;;;5053919;28;19924;-81
2022/03/12 07:34:04;;;;;;;;;;;4.90;55.90;;;;;;5071663;28;20286;-80
2022/03/12 07:36:30;;;;;;;;;;;4.90;56.20;;;;;;5070957;28;19920;-81
2022/03/12 07:38:58;;;;;;;;;;;4.90;56.00;;;;;;5071068;28;20271;-81
2022/03/12 07:41:24;;;;;;;;;;;5.00;55.60;;;;;;5070825;28;20290;-81
2022/03/12 07:43:50;;;;;;;;;;;5.00;55.70;;;;;;5071409;28;19978;-81
2022/03/12 07:46:15;;;;;;;;;;;5.10;55.80;;;;;;5070976;28;19931;-81
2022/03/12 07:48:41;;;;;;;;;;;5.10;55.50;;;;;;5071170;28;20293;-81
2022/03/12 07:51:07;;;;;;;;;;;5.20;55.20;;;;;;5070897;28;19920;-81
2022/03/12 07:53:32;;;;;;;;;;;5.20;55.30;;;;;;5070788;28;20467;-81
2022/03/12 07:55:59;;;;;;;;;;;5.20;55.80;;;;;;5053957;28;20127;-81
2022/03/12 07:58:27;;;;;;;;;;;5.30;54.90;;;;;;5070693;28;19920;-81
2022/03/12 08:00:54;;;;;;;;;;;5.30;54.30;;;;;;5054169;28;19998;-80
2022/03/12 08:03:23;;;;;;;;;;;5.30;54.80;;;;;;5054127;28;19974;-80
2022/03/12 08:05:49;;;;;;;;;;;5.30;55.10;;;;;;5054041;28;20401;-80
2022/03/12 08:08:14;;;;;;;;;;;5.40;54.90;;;;;;5053981;28;19920;-81
2022/03/12 08:13:24;;;;;;;;;;;5.50;55.60;;;;;;5070666;28;19920;-82
2022/03/12 08:15:50;;;;;;;;;;;5.50;55.80;;;;;;5070739;28;20298;-82
2022/03/12 08:18:16;;;;;;;;;;;5.60;56.20;;;;;;5054040;28;19920;-81
2022/03/12 08:20:42;;;;;;;;;;;5.60;56.10;;;;;;5084999;28;19926;-81
2022/03/12 08:23:08;;;;;;;;;;;5.70;56.00;;;;;;5112316;27;20440;-81
2022/03/12 08:25:34;;;;;;;;;;;5.80;55.70;;;;;;5112357;27;19974;-81
2022/03/12 08:27:59;;;;;;;;;;;6.00;55.90;;;;;;5114422;27;19964;-80
2022/03/12 08:30:25;;;;;;;;;;;6.10;55.40;;;;;;5114611;27;19971;-80
2022/03/12 08:32:52;;;;;;;;;;;6.20;55.60;;;;;;5114549;27;20338;-80
2022/03/12 08:35:18;;;;;;;;;;;6.30;55.30;;;;;;5113842;27;19923;-81
2022/03/12 08:37:43;;;;;;;;;;;6.30;55.20;;;;;;5109296;27;20028;-81
2022/03/12 08:40:12;;;;;;;;;;;6.50;55.70;;;;;;5109649;27;19920;-81
2022/03/12 08:42:38;;;;;;;;;;;6.60;55.40;;;;;;5124008;27;20403;-81
2022/03/12 08:45:04;;;;;;;;;;;6.70;55.20;;;;;;5097429;27;19919;-81
2022/03/12 08:47:29;;;;;;;;;;;6.70;54.70;;;;;;5113584;27;20062;-79
2022/03/12 08:49:55;;;;;;;;;;;6.80;54.70;;;;;;5114475;27;20605;-80
2022/03/12 08:52:21;;;;;;;;;;;6.90;54.70;;;;;;5113954;27;19930;-79
2022/03/12 08:54:46;;;;;;;;;;;6.90;55.10;;;;;;5132046;27;19919;-79
2022/03/12 08:57:12;;;;;;;;;;;7.00;55.80;;;;;;5113700;27;19923;-81
2022/03/12 08:59:37;;;;;;;;;;;7.10;55.10;;;;;;5109753;27;19919;-81
2022/03/12 09:02:03;;;;;;;;;;;7.20;55.40;;;;;;5127039;27;19926;-79
2022/03/12 09:04:29;;;;;;;;;;;7.30;55.70;;;;;;5113521;27;19923;-78
2022/03/12 09:06:55;;;;;;;;;;;7.40;55.40;;;;;;5109290;27;20096;-80
2022/03/12 09:09:20;;;;;;;;;;;7.50;55.90;;;;;;5096854;27;20110;-80
2022/03/12 09:11:46;;;;;;;;;;;7.70;55.70;;;;;;5115382;27;19924;-79
2022/03/12 09:14:11;;;;;;;;;;;7.80;55.90;;;;;;5116600;27;19930;-78
2022/03/12 09:16:37;;;;;;;;;;;8.00;56.40;;;;;;5112699;27;20706;-79
2022/03/12 09:19:07;;;;;;;;;;;8.20;56.30;;;;;;5112883;28;19965;-79
2022/03/12 09:21:32;;;;;;;;;;;8.40;56.10;;;;;;5112128;28;19920;-79
2022/03/12 09:23:58;;;;;;;;;;;8.60;55.90;;;;;;5095809;27;19972;-80
2022/03/12 09:26:23;;;;;;;;;;;9.10;55.60;;;;;;5111726;27;19964;-79
2022/03/12 09:28:49;;;;;;;;;;;9.70;53.50;;;;;;5105632;28;20397;-79
2022/03/12 09:31:16;;;;;;;;;;;10.30;52.90;;;;;;5112776;28;19977;-79
2022/03/12 09:33:41;;;;;;;;;;;10.90;52.20;;;;;;5094164;28;19920;-80
2022/03/12 09:36:09;;;;;;;;;;;11.10;50.80;;;;;;5094903;28;19927;-79
2022/03/12 09:38:35;;;;;;;;;;;11.40;51.00;;;;;;5101746;27;19933;-79
2022/03/12 09:41:01;;;;;;;;;;;11.60;51.10;;;;;;5096531;27;20034;-79
2022/03/12 09:43:26;;;;;;;;;;;11.90;49.90;;;;;;5113872;27;20014;-79
2022/03/12 09:45:52;;;;;;;;;;;11.90;50.10;;;;;;5112573;27;19919;-80
2022/03/12 09:48:18;;;;;;;;;;;12.00;50.20;;;;;;5113620;27;20015;-80
2022/03/12 09:50:43;;;;;;;;;;;12.10;50.30;;;;;;5113745;27;19919;-79
2022/03/12 09:53:09;;;;;;;;;;;12.20;50.70;;;;;;5113553;27;19955;-80
2022/03/12 09:55:34;;;;;;;;;;;12.40;50.90;;;;;;5114174;27;19930;-80
2022/03/12 09:58:00;;;;;;;;;;;12.70;50.30;;;;;;5109231;28;19930;-80
2022/03/12 10:00:26;;;;;;;;;;;12.80;50.10;;;;;;5093012;28;19919;-79
2022/03/12 10:02:52;;;;;;;;;;;13.10;49.90;;;;;;5109983;28;19967;-79
2022/03/12 10:05:17;;;;;;;;;;;13.20;49.70;;;;;;5092894;28;20657;-79
2022/03/12 10:07:43;;;;;;;;;;;13.50;50.30;;;;;;5092858;28;19920;-79
2022/03/12 10:10:15;;;;;;;;;;;13.90;49.80;;;;;;5092518;28;19923;-79
2022/03/12 10:12:42;;;;;;;;;;;14.30;50.00;;;;;;5092914;28;19920;-79
2022/03/12 10:15:10;;;;;;;;;;;14.60;49.50;;;;;;5097191;27;20049;-79
2022/03/12 10:17:36;;;;;;;;;;;14.90;49.50;;;;;;5102568;28;20010;-79
2022/03/12 10:20:05;;;;;;;;;;;14.90;48.50;;;;;;5111816;28;20053;-80
2022/03/12 10:22:32;;;;;;;;;;;14.90;49.50;;;;;;5112140;28;20296;-80
2022/03/12 10:24:57;;;;;;;;;;;15.00;49.90;;;;;;5093463;28;19931;-80
2022/03/12 10:27:23;;;;;;;;;;;15.30;49.20;;;;;;5093233;28;19919;-79
2022/03/12 10:29:49;;;;;;;;;;;15.60;49.90;;;;;;5092459;28;20011;-79
2022/03/12 10:32:25;;;;;;;;;;;15.80;50.00;;;;;;5093259;28;20010;-79
2022/03/12 10:34:52;;;;;;;;;;;15.80;49.90;;;;;;5072441;28;20560;-80
2022/03/12 10:37:18;;;;;;;;;;;15.70;49.50;;;;;;5073146;28;19930;-80
2022/03/12 10:39:45;;;;;;;;;;;15.60;50.70;;;;;;5090742;28;20028;-80
2022/03/12 10:42:12;;;;;;;;;;;15.60;51.10;;;;;;5110917;27;19963;-81
2022/03/12 10:44:39;;;;;;;;;;;15.60;51.40;;;;;;5115650;27;19920;-80
2022/03/12 10:47:23;;;;;;;;;;;15.80;52.00;;;;;;5108099;27;20445;-81
2022/03/12 10:49:57;;;;;;;;;;;15.80;52.20;;;;;;5128760;27;19923;-78
2022/03/12 10:52:28;;;;;;;;;;;16.00;52.10;;;;;;5126896;27;19930;-77
2022/03/12 10:54:54;;;;;;;;;;;16.00;52.20;;;;;;5093227;28;19919;-78
2022/03/12 10:57:19;;;;;;;;;;;16.20;52.20;;;;;;5093074;28;19927;-78
2022/03/12 10:59:45;;;;;;;;;;;16.30;52.20;;;;;;5110850;28;19920;-77
2022/03/12 11:02:11;;;;;;;;;;;16.30;52.00;;;;;;5093308;28;19919;-80
2022/03/12 11:04:37;;;;;;;;;;;16.50;52.00;;;;;;5092189;28;20938;-78
2022/03/12 11:07:24;;;;;;;;;;;16.70;52.40;;;;;;5081610;27;19998;-79
2022/03/12 11:09:50;;;;;;;;;;;16.80;51.90;;;;;;5114063;27;19923;-79
2022/03/12 11:12:31;;;;;;;;;;;16.80;52.20;;;;;;5113841;27;19923;-79
2022/03/12 11:17:29;;;;;;;12.73;7.80;;;17.10;52.50;;;;;;5121919;27;1934764;-81
2022/03/12 11:19:57;;;;;;;10.60;7.95;;;17.30;51.70;;;;;;5150139;27;20412;-81
2022/03/12 11:22:23;;;;;;;11.30;8.25;;;17.30;51.80;;;;;;5134640;27;20410;-81
2022/03/12 11:24:54;;;;;;;12.97;8.17;;;17.50;52.00;;;;;;5129983;27;20417;-81
2022/03/12 11:27:34;;;;;;;9.95;7.95;;;17.60;51.70;;;;;;5160469;27;21125;-81
2022/03/12 11:30:10;;;;;;;8.55;7.65;;;17.80;51.30;;;;;;5122674;27;20439;-82
2022/03/12 11:32:45;;;;;;;12.52;8.38;;;17.90;51.70;;;;;;5134685;27;20398;-81
2022/03/12 11:35:13;;;;;;;;;;;18.20;51.30;;;;;;5136399;27;20041;-82
2022/03/12 11:37:41;;;;;;;;;;;18.70;51.00;;;;;;5118247;27;20354;-82
2022/03/12 11:40:09;;;;;;;;;;;19.00;51.00;;;;;;5131694;27;19923;-82
2022/03/12 11:42:36;;;;;;;;;;;19.10;50.50;;;;;;5118368;27;19926;-81
2022/03/12 11:45:09;;;;;;;;;;;19.20;51.00;;;;;;5127457;27;19985;-82
2022/03/12 11:47:37;;;;;;;;;;;19.10;50.10;;;;;;5115195;27;19923;-81
2022/03/12 11:50:05;;;;;;;;;;;19.00;50.90;;;;;;5131018;27;19923;-81
2022/03/12 11:52:31;;;;;;;;;;;18.80;50.80;;;;;;5137253;27;19919;-82
2022/03/12 11:55:00;;;;;;;;;;;18.80;51.90;;;;;;5134043;27;19993;-81
2022/03/12 11:57:27;;;;;;;;;;;18.90;51.60;;;;;;5141788;27;19979;-82
2022/03/12 11:59:53;;;;;;;;;;;19.10;51.00;;;;;;5151617;27;19918;-81
2022/03/12 12:02:32;;;;;;;;;;;19.20;51.60;;;;;;5135686;27;20321;-81
2022/03/12 12:04:59;;;;;;;;;;;19.40;52.00;;;;;;5116890;27;19923;-80
2022/03/12 12:07:32;;;;;;;;;;;19.70;51.00;;;;;;5116110;27;19919;-81
2022/03/12 12:09:58;;;;;;;;;;;20.10;50.80;;;;;;5131474;27;20014;-81
2022/03/12 12:12:27;;;;;;;;;;;20.20;49.80;;;;;;5131360;27;19979;-82
2022/03/12 12:14:54;;;;;;;;;;;20.00;50.50;;;;;;5115034;27;20973;-81
2022/03/12 12:17:20;;;;;;;;;;;19.90;51.00;;;;;;5113654;27;19964;-81
2022/03/12 12:19:45;;;;;;;;;;;19.90;50.10;;;;;;5132154;27;19919;-80
2022/03/12 12:22:11;;;;;;;;;;;19.80;50.20;;;;;;5142550;27;19919;-80
2022/03/12 12:24:42;;;;;;;;;;;19.10;50.40;;;;;;5151530;27;20282;-81
2022/03/12 12:27:09;;;;;;;;;;;18.60;50.90;;;;;;5147205;27;20363;-80
2022/03/12 12:29:41;;;;;;;;;;;18.30;52.00;;;;;;5119071;27;20021;-80
2022/03/12 12:32:07;;;;;;;;;;;17.70;52.60;;;;;;5115901;27;20415;-80
2022/03/12 12:34:34;;;;;;;;;;;17.30;53.80;;;;;;5134554;27;20326;-80
2022/03/12 12:37:01;;;;;;;;;;;16.90;54.40;;;;;;5115438;27;20905;-80
2022/03/12 12:39:26;;;;;;;;;;;16.60;55.10;;;;;;5099637;27;19923;-80
2022/03/12 12:42:01;;;;;;;10.00;7.28;;;16.40;56.20;;;;;;5115339;27;20309;-80
2022/03/12 12:44:39;;;;;;;10.50;7.65;;;16.30;56.30;;;;;;5115349;27;20043;-81
2022/03/12 12:47:06;;;;;;;13.25;8.27;;;16.30;56.60;;;;;;5115186;27;20046;-81
2022/03/12 12:49:40;;;;;;;10.90;8.00;;;16.50;57.00;;;;;;5132685;27;20496;-80
2022/03/12 12:52:07;;;;;;;12.10;7.18;;;16.80;57.30;;;;;;5135174;27;20081;-81
2022/03/12 12:54:48;;;;;;;;;;;17.30;56.60;;;;;;5119351;27;20462;-81
2022/03/12 12:57:14;;;;;;;;;;;17.90;56.30;;;;;;5118786;27;19942;-81
2022/03/12 12:59:44;;;;;;;9.48;6.97;;;18.30;55.10;;;;;;5133244;27;19920;-81
2022/03/12 13:02:10;;;;;;;10.10;7.50;;;18.60;55.00;;;;;;5113618;27;20903;-81
2022/03/12 13:04:49;;;;;;;9.57;7.88;;;19.20;54.50;;;;;;5096754;27;20411;-80
2022/03/12 13:07:24;;;;;;;10.68;7.30;;;19.20;53.50;;;;;;5113518;27;20411;-80
2022/03/12 13:09:49;;;;;;;10.48;7.28;;;18.70;52.90;;;;;;5113513;27;20434;-81
2022/03/12 13:12:15;;;;;;;9.97;7.03;;;18.20;54.10;;;;;;5112951;27;20473;-80
2022/03/12 13:14:46;;;;;;;10.20;6.72;;;18.00;55.00;;;;;;5113432;27;20753;-80
2022/03/12 13:17:35;;;;;;;9.35;6.70;;;17.90;55.30;;;;;;5123127;27;20065;-81
2022/03/12 13:20:20;;;;;;;9.63;7.00;;;17.80;55.10;;;;;;5117621;27;20554;-81
2022/03/12 13:22:46;;;;;;;11.15;6.95;;;17.80;55.70;;;;;;5114310;27;20135;-81
2022/03/12 13:25:19;;;;;;;10.13;6.03;;;17.90;55.30;;;;;;5116044;27;20126;-82
2022/03/12 13:27:59;;;;;;;11.68;6.28;;;17.80;55.30;;;;;;5135974;27;20065;-82
2022/03/12 13:30:25;;;;;;;10.80;6.10;;;17.90;55.90;;;;;;5135559;27;20046;-82
2022/03/12 13:33:10;;;;;;;8.27;6.22;;;17.90;55.30;;;;;;5117762;27;20492;-81
2022/03/12 13:35:36;;;;;;;;;;;17.80;55.50;;;;;;5117237;27;20045;-82
2022/03/12 13:38:02;;;;;;;;;;;17.60;56.10;;;;;;5134744;27;19923;-81
2022/03/12 13:40:29;;;;;;;10.38;6.28;;;17.40;56.10;;;;;;5136106;27;19925;-80
2022/03/12 13:43:00;;;;;;;7.55;6.72;;;17.40;56.40;;;;;;5113419;27;20443;-81
2022/03/12 13:45:29;;;;;;;9.75;6.18;;;17.30;56.90;;;;;;5113164;27;20051;-81
2022/03/12 13:47:57;;;;;;;;;;;17.30;57.20;;;;;;5113807;27;20039;-82
2022/03/12 13:50:23;;;;;;;;;;;17.40;56.90;;;;;;5116020;27;19934;-81
2022/03/12 13:52:54;;;;;;;;;;;17.30;57.20;;;;;;5114917;27;19921;-81
2022/03/12 13:55:20;;;;;;;;;;;17.40;57.10;;;;;;5132519;27;20476;-81
2022/03/12 13:57:48;;;;;;;;;;;17.40;57.20;;;;;;5133607;27;19929;-80
2022/03/12 14:00:16;;;;;;;;;;;17.30;57.30;;;;;;5116546;27;19919;-79
2022/03/12 14:02:45;;;;;;;;;;;17.20;57.40;;;;;;5115270;27;19945;-81
2022/03/12 14:05:18;;;;;;;;;;;17.20;57.80;;;;;;5099935;27;20007;-81
2022/03/12 14:07:44;;;;;;;;;;;17.10;58.10;;;;;;5114507;27;19945;-80
2022/03/12 14:10:11;;;;;;;;;;;17.20;58.20;;;;;;5131050;27;19919;-80
2022/03/12 14:12:37;;;;;;;;;;;17.30;58.60;;;;;;5130665;27;19979;-79
2022/03/12 14:15:03;;;;;;;;;;;17.30;58.40;;;;;;5113337;27;19923;-80
2022/03/12 14:17:30;;;;;;;;;;;17.40;57.80;;;;;;5096553;27;19919;-81
2022/03/12 14:19:59;;;;;;;;;;;17.30;57.40;;;;;;5113794;27;19927;-80
2022/03/12 14:22:26;;;;;;;;;;;17.20;57.00;;;;;;5113596;27;19919;-80